Flight Track Log - Related Links

Times and Time Zones

All times are in EDT time to prevent confusion due to time zone crossing. See the SKW5476 flight status page for this flight to view local times or setup timezone preferences in your user account.

Time Position Orientation Groundspeed Altitude Reporting Facility
EDT Latitude Longitude Course Direction KTS MPH feet Rate Location/Type
Mon 02:58:49 PM 37.6333 -122.3667 360° North 135 155 800  Level Northern Cal TRACON
Mon 02:59:49 PM 37.6678 -122.3669 360° North 159 183 2,300 1,525 Climbing Oakland Center
Mon 03:00:51 PM 37.7147 -122.3606 North 165 190 3,900 1,512 Climbing Oakland Center
Mon 03:01:52 PM 37.7639 -122.3694 352° North 178 205 5,400 1,024 Climbing Oakland Center
Mon 03:02:54 PM 37.8292 -122.3817 352° North 196 226 6,000 927 Climbing Oakland Center
Mon 03:03:55 PM 37.8875 -122.3811 360° North 209 241 7,300 1,415 Climbing Oakland Center
Mon 03:04:57 PM 37.9422 -122.3786 North 201 231 8,900 1,452 Climbing Oakland Center
Mon 03:05:59 PM 37.9942 -122.3819 357° North 191 220 10,300 1,317 Climbing Oakland Center
Mon 03:07:00 PM 38.0461 -122.3794 North 187 215 11,600 1,135 Climbing Oakland Center
Mon 03:08:00 PM 38.1178 -122.3603 North  Level FlightAware Approximate
Mon 03:09:04 PM 38.1689 -122.3664 North 205 236 13,800  Level Oakland Center
Mon 03:10:05 PM 38.2244 -122.3550 North 205 236 14,700 927 Climbing Oakland Center
Mon 03:11:07 PM 38.2822 -122.3447 North 212 244 15,700 968 Climbing Oakland Center
Mon 03:12:09 PM 38.3411 -122.3342 North 213 245 16,700 927 Climbing Oakland Center
Mon 03:13:10 PM 38.4006 -122.3231 North 216 249 17,600 878 Climbing Oakland Center
Mon 03:14:12 PM 38.4606 -122.3122 North 219 252 18,500 780 Climbing Oakland Center
Mon 03:15:13 PM 38.5219 -122.3003 North 223 257 19,200 829 Climbing Oakland Center
Mon 03:16:15 PM 38.5967 -122.2869 North 228 262 20,200 774 Climbing Oakland Center
Mon 03:17:17 PM 38.6597 -122.2747 North 229 264 20,800 634 Climbing Oakland Center
Mon 03:18:18 PM 38.7219 -122.2642 North 230 265 21,500 683 Climbing Oakland Center
Mon 03:19:20 PM 38.7864 -122.2514 North 232 267 22,200 585 Climbing Oakland Center
Mon 03:20:21 PM 38.8481 -122.2419 North 224 258 22,700 537 Climbing Oakland Center
Mon 03:21:23 PM 38.9139 -122.2289 North 232 267 23,300 581 Climbing Oakland Center
Mon 03:22:25 PM 38.9822 -122.2172 North 242 278 23,900 341 Climbing Oakland Center
Mon 03:23:26 PM 39.0667 -122.2017 North 251 289 24,000 49 Climbing Oakland Center
Mon 03:24:28 PM 39.1436 -122.1839 10° North 275 316 24,000  Level Oakland Center
Mon 03:25:30 PM 39.2158 -122.1706 North 265 305 24,000  Level Oakland Center
Mon 03:26:31 PM 39.2861 -122.1575 North 258 297 24,000  Level Oakland Center
Mon 03:27:33 PM 39.3561 -122.1453 North 256 295 24,000  Level Oakland Center
Mon 03:28:34 PM 39.4247 -122.1319 North 251 289 24,000  Level Oakland Center
Mon 03:29:36 PM 39.4975 -122.1181 North 253 291 24,000  Level Oakland Center
Mon 03:30:38 PM 39.5667 -122.1058 North 251 289 24,000  Level Oakland Center
Mon 03:31:39 PM 39.6339 -122.0922 North 248 285 24,000  Level Oakland Center
Mon 03:32:41 PM 39.7008 -122.0794 North 245 282 24,000  Level Oakland Center
Mon 03:33:42 PM 39.7811 -122.0647 North 244 281 24,000  Level Oakland Center
Mon 03:34:44 PM 39.8475 -122.0519 North 243 280 24,000  Level Oakland Center
Mon 03:35:45 PM 39.9136 -122.0394 North 241 277 24,000  Level Oakland Center
Mon 03:36:47 PM 39.9794 -122.0264 North 242 278 24,000  Level Oakland Center
Mon 03:37:48 PM 40.0456 -122.0128 North 243 280 24,000  Level Oakland Center
Mon 03:38:50 PM 40.1128 -121.9994 North 245 282 24,000  Level Oakland Center
Mon 03:39:51 PM 40.1808 -121.9872 North 249 287 24,000  Level Oakland Center
Mon 03:40:53 PM 40.2611 -121.9711 North 247 284 24,000  Level Oakland Center
Mon 03:41:54 PM 40.3278 -121.9592 North 245 282 24,000  Level Oakland Center
Mon 03:42:56 PM 40.3947 -121.9450 North 245 282 24,000  Level Oakland Center
Mon 03:43:57 PM 40.4625 -121.9322 North 247 284 24,000  Level Oakland Center
Mon 03:44:59 PM 40.5300 -121.9203 North 246 283 24,000  Level Oakland Center
Mon 03:46:00 PM 40.5978 -121.9072 North 247 284 24,000  Level Oakland Center
Mon 03:47:02 PM 40.6794 -121.8911 North 247 284 24,000  Level Oakland Center
Mon 03:48:03 PM 40.7458 -121.8781 North 244 281 24,000  Level Oakland Center
Mon 03:49:05 PM 40.8117 -121.8653 North 241 277 24,000  Level Oakland Center
Mon 03:50:06 PM 40.8769 -121.8536 North 239 275 24,000  Level Oakland Center
Mon 03:51:08 PM 40.9433 -121.8397 North 243 280 24,000  Level Oakland Center
Mon 03:52:09 PM 41.0103 -121.8264 North 243 280 24,000  Level Oakland Center
Mon 03:53:11 PM 41.0783 -121.8136 North 248 285 24,000  Level Oakland Center
Mon 03:54:12 PM 41.1453 -121.8031 North 249 287 24,000  Level Oakland Center
Mon 03:54:45 PM 41.1844 -121.7942 10° North 244 281 24,000  Level Seattle Center
Mon 03:55:46 PM 41.2533 -121.7814 North 247 284 24,000  Level Seattle Center
Mon 03:56:47 PM 41.3228 -121.7672 North 250 288 24,000  Level Seattle Center
Mon 03:57:48 PM 41.3917 -121.7539 North 251 289 24,000  Level Seattle Center
Mon 03:58:49 PM 41.4617 -121.7403 North 253 291 24,000  Level Seattle Center
Mon 03:59:50 PM 41.5447 -121.7222 North 252 290 24,000  Level Seattle Center
Mon 04:00:51 PM 41.6133 -121.7089 North 250 288 24,000  Level Seattle Center
Mon 04:01:52 PM 41.6836 -121.6944 North 250 288 24,000  Level Seattle Center
Mon 04:02:53 PM 41.7489 -121.6806 North 246 283 24,000  Level Seattle Center
Mon 04:03:54 PM 41.8161 -121.6672 North 245 282 24,000  Level Seattle Center
Mon 04:04:55 PM 41.8828 -121.6531 North 244 281 24,000  Level Seattle Center
Mon 04:05:56 PM 41.9511 -121.6397 North 248 285 24,000  Level Seattle Center
Mon 04:06:57 PM 42.0181 -121.6233 10° North 249 287 24,000  Level Seattle Center
Mon 04:07:58 PM 42.0858 -121.6114 North 249 287 24,000  Level Seattle Center
Mon 04:08:59 PM 42.1542 -121.5972 North 251 289 24,000  Level Seattle Center
Mon 04:10:00 PM 42.2358 -121.5803 North 249 287 24,000  Level Seattle Center
Mon 04:11:01 PM 42.3036 -121.5656 North 249 287 24,000  Level Seattle Center
Mon 04:12:02 PM 42.3708 -121.5511 North 246 283 24,000  Level Seattle Center
Mon 04:13:03 PM 42.4372 -121.5381 North 244 281 24,000  Level Seattle Center
Mon 04:14:04 PM 42.5031 -121.5236 North 240 276 24,000  Level Seattle Center
Mon 04:15:05 PM 42.5694 -121.5106 North 241 277 24,000  Level Seattle Center
Mon 04:16:06 PM 42.6367 -121.4961 North 243 280 24,000  Level Seattle Center
Mon 04:17:07 PM 42.7033 -121.4817 North 244 281 24,000  Level Seattle Center
Mon 04:18:08 PM 42.7694 -121.4686 North 240 276 24,000  Level Seattle Center
Mon 04:19:09 PM 42.8356 -121.4567 North 239 275 24,000 -49 Level Seattle Center
Mon 04:20:10 PM 42.9000 -121.4422 North 237 273 23,900 -492 Descending Seattle Center
Mon 04:21:11 PM 42.9672 -121.4111 19° North 250 288 23,000 -1,131 Descending Seattle Center
Mon 04:22:12 PM 43.0472 -121.3728 19° North 254 292 21,600 -1,180 Descending Seattle Center
Mon 04:23:13 PM 43.1136 -121.3536 12° North 246 283 20,600 -984 Descending Seattle Center
Mon 04:24:14 PM 43.1778 -121.3478 North 233 268 19,600 -1,033 Descending Seattle Center
Mon 04:25:15 PM 43.2400 -121.3372 North 226 260 18,500 -984 Descending Seattle Center
Mon 04:26:16 PM 43.3000 -121.3253 North 219 252 17,600 -836 Descending Seattle Center
Mon 04:27:17 PM 43.3589 -121.3142 North 214 246 16,800 -793 Descending Seattle Center
Mon 04:28:17 PM 43.4167 -121.3031 North 212 244 16,000 -793 Descending Seattle Center
Mon 04:29:18 PM 43.4756 -121.2947 North 211 243 15,200 -787 Descending Seattle Center
Mon 04:30:19 PM 43.5333 -121.2819 North 211 243 14,400 -836 Descending Seattle Center
Mon 04:31:20 PM 43.5978 -121.2739 North 212 244 13,500 -885 Descending Seattle Center
Mon 04:32:21 PM 43.6550 -121.2625 North 207 238 12,600 -934 Descending Seattle Center
Mon 04:33:22 PM 43.7092 -121.2522 North 197 227 11,600 -885 Descending Seattle Center
Mon 04:34:23 PM 43.7631 -121.2425 North 196 226 10,800 -787 Descending Seattle Center
Mon 04:35:24 PM 43.8197 -121.2319 North 202 232 10,000 -639 Descending Seattle Center
Mon 04:36:25 PM 43.8783 -121.2194 North 210 242 9,500 -689 Descending Seattle Center
Mon 04:37:26 PM 43.9392 -121.2069 North 217 250 8,600 -689 Descending Seattle Center
Mon 04:38:27 PM 44.0017 -121.1972 North 223 257 8,100 -443 Descending Seattle Center
Mon 04:39:28 PM 44.0600 -121.1722 17° North 226 260 7,700 -541 Descending Seattle Center
Mon 04:40:29 PM 44.1172 -121.1397 22° Northeast 226 260 7,000 -885 Descending Seattle Center
Mon 04:41:30 PM 44.1725 -121.1061 24° Northeast 222 255 5,900 -1,279 Descending Seattle Center
Mon 04:42:31 PM 44.2208 -121.0783 22° Northeast 186 214 4,400 -1,131 Descending Seattle Center
Mon 04:43:32 PM 44.2378 -121.1153 303° West 136 157 3,600 -787 Descending Seattle Center

Login

Don't have an account? Register now (free) for customized features, flight alerts, and more!